sensor_id;sensor_type;location;lat;lon;timestamp;temperature;humidity
18339;DHT22;9295;44.484;11.240;2023-02-23T00:02:19;10.70;99.90
18339;DHT22;9295;44.484;11.240;2023-02-23T00:04:47;10.70;99.90
18339;DHT22;9295;44.484;11.240;2023-02-23T00:07:16;10.70;99.90
18339;DHT22;9295;44.484;11.240;2023-02-23T00:09:46;10.70;99.90
18339;DHT22;9295;44.484;11.240;2023-02-23T00:12:16;10.60;99.90
18339;DHT22;9295;44.484;11.240;2023-02-23T00:14:46;10.60;99.90
18339;DHT22;9295;44.484;11.240;2023-02-23T00:17:17;10.60;99.90
18339;DHT22;9295;44.484;11.240;2023-02-23T00:19:46;10.70;99.90
18339;DHT22;9295;44.484;11.240;2023-02-23T00:22:15;10.80;99.90
18339;DHT22;9295;44.484;11.240;2023-02-23T00:24:44;10.80;99.90
18339;DHT22;9295;44.484;11.240;2023-02-23T00:27:14;10.80;99.90
18339;DHT22;9295;44.484;11.240;2023-02-23T00:29:47;10.90;99.90
18339;DHT22;9295;44.484;11.240;2023-02-23T00:32:17;10.90;99.90
18339;DHT22;9295;44.484;11.240;2023-02-23T00:34:47;10.80;99.90
18339;DHT22;9295;44.484;11.240;2023-02-23T00:37:17;10.90;99.90
18339;DHT22;9295;44.484;11.240;2023-02-23T00:39:47;10.80;99.90
18339;DHT22;9295;44.484;11.240;2023-02-23T00:42:16;10.70;99.90
18339;DHT22;9295;44.484;11.240;2023-02-23T00:44:45;10.70;99.90
18339;DHT22;9295;44.484;11.240;2023-02-23T00:47:17;10.70;99.90
18339;DHT22;9295;44.484;11.240;2023-02-23T00:49:48;10.70;99.90
18339;DHT22;9295;44.484;11.240;2023-02-23T00:52:18;10.70;99.90
18339;DHT22;9295;44.484;11.240;2023-02-23T00:54:46;10.70;99.90
18339;DHT22;9295;44.484;11.240;2023-02-23T00:57:15;10.80;99.90
18339;DHT22;9295;44.484;11.240;2023-02-23T00:59:44;10.80;99.90
18339;DHT22;9295;44.484;11.240;2023-02-23T01:02:16;10.80;99.90
18339;DHT22;9295;44.484;11.240;2023-02-23T01:04:44;10.80;99.90
18339;DHT22;9295;44.484;11.240;2023-02-23T01:07:13;10.70;99.90
18339;DHT22;9295;44.484;11.240;2023-02-23T01:09:41;10.70;99.90
18339;DHT22;9295;44.484;11.240;2023-02-23T01:12:10;10.70;99.90
18339;DHT22;9295;44.484;11.240;2023-02-23T01:14:38;10.70;99.90
18339;DHT22;9295;44.484;11.240;2023-02-23T01:17:09;10.70;99.90
18339;DHT22;9295;44.484;11.240;2023-02-23T01:19:39;10.60;99.90
18339;DHT22;9295;44.484;11.240;2023-02-23T01:22:08;10.60;99.90
18339;DHT22;9295;44.484;11.240;2023-02-23T01:24:39;10.60;99.90
18339;DHT22;9295;44.484;11.240;2023-02-23T01:27:08;10.60;99.90
18339;DHT22;9295;44.484;11.240;2023-02-23T01:29:37;10.60;99.90
18339;DHT22;9295;44.484;11.240;2023-02-23T01:32:06;10.50;99.90
18339;DHT22;9295;44.484;11.240;2023-02-23T01:34:35;10.40;99.90
18339;DHT22;9295;44.484;11.240;2023-02-23T01:37:05;10.30;99.90
18339;DHT22;9295;44.484;11.240;2023-02-23T01:39:34;10.20;99.90
18339;DHT22;9295;44.484;11.240;2023-02-23T01:42:03;10.20;99.90
18339;DHT22;9295;44.484;11.240;2023-02-23T01:47:40;10.00;99.90
18339;DHT22;9295;44.484;11.240;2023-02-23T01:50:09;9.90;99.90
18339;DHT22;9295;44.484;11.240;2023-02-23T01:52:39;9.90;99.90
18339;DHT22;9295;44.484;11.240;2023-02-23T01:55:10;9.90;99.90
18339;DHT22;9295;44.484;11.240;2023-02-23T01:57:39;9.90;99.90
18339;DHT22;9295;44.484;11.240;2023-02-23T02:00:10;9.90;99.90
18339;DHT22;9295;44.484;11.240;2023-02-23T02:02:41;9.90;99.90
18339;DHT22;9295;44.484;11.240;2023-02-23T02:05:09;9.80;99.90
18339;DHT22;9295;44.484;11.240;2023-02-23T02:07:45;9.80;99.90
18339;DHT22;9295;44.484;11.240;2023-02-23T02:10:18;9.70;99.90
18339;DHT22;9295;44.484;11.240;2023-02-23T02:13:04;9.70;99.90
18339;DHT22;9295;44.484;11.240;2023-02-23T02:15:39;9.70;99.90
18339;DHT22;9295;44.484;11.240;2023-02-23T02:18:18;9.60;99.90
18339;DHT22;9295;44.484;11.240;2023-02-23T02:21:15;9.60;99.90
18339;DHT22;9295;44.484;11.240;2023-02-23T02:27:03;9.60;99.90
18339;DHT22;9295;44.484;11.240;2023-02-23T02:30:14;9.60;99.90
18339;DHT22;9295;44.484;11.240;2023-02-23T02:33:16;9.70;99.90
18339;DHT22;9295;44.484;11.240;2023-02-23T02:36:15;9.70;99.90
18339;DHT22;9295;44.484;11.240;2023-02-23T02:38:52;9.80;99.90
18339;DHT22;9295;44.484;11.240;2023-02-23T02:41:34;9.80;99.90
18339;DHT22;9295;44.484;11.240;2023-02-23T02:44:13;9.80;99.90
18339;DHT22;9295;44.484;11.240;2023-02-23T02:46:45;9.80;99.90
18339;DHT22;9295;44.484;11.240;2023-02-23T02:49:23;9.80;99.90
18339;DHT22;9295;44.484;11.240;2023-02-23T02:51:57;9.80;99.90
18339;DHT22;9295;44.484;11.240;2023-02-23T02:54:31;9.80;99.90
18339;DHT22;9295;44.484;11.240;2023-02-23T02:57:03;9.80;99.90
18339;DHT22;9295;44.484;11.240;2023-02-23T02:59:41;9.80;99.90
18339;DHT22;9295;44.484;11.240;2023-02-23T03:02:32;9.80;99.90
18339;DHT22;9295;44.484;11.240;2023-02-23T03:05:22;9.70;99.90
18339;DHT22;9295;44.484;11.240;2023-02-23T03:08:18;9.80;99.90
18339;DHT22;9295;44.484;11.240;2023-02-23T03:11:08;9.80;99.90
18339;DHT22;9295;44.484;11.240;2023-02-23T03:14:06;9.90;99.90
18339;DHT22;9295;44.484;11.240;2023-02-23T03:16:59;9.80;99.90
18339;DHT22;9295;44.484;11.240;2023-02-23T03:19:53;9.80;99.90
18339;DHT22;9295;44.484;11.240;2023-02-23T03:22:46;9.80;99.90
18339;DHT22;9295;44.484;11.240;2023-02-23T03:25:46;9.80;99.90
18339;DHT22;9295;44.484;11.240;2023-02-23T03:28:39;9.90;99.90
18339;DHT22;9295;44.484;11.240;2023-02-23T03:31:37;9.80;99.90
18339;DHT22;9295;44.484;11.240;2023-02-23T03:34:29;9.80;99.90
18339;DHT22;9295;44.484;11.240;2023-02-23T03:37:23;9.80;99.90
18339;DHT22;9295;44.484;11.240;2023-02-23T03:40:15;9.70;99.90
18339;DHT22;9295;44.484;11.240;2023-02-23T03:43:07;9.70;99.90
18339;DHT22;9295;44.484;11.240;2023-02-23T03:45:58;9.70;99.90
18339;DHT22;9295;44.484;11.240;2023-02-23T03:48:47;9.80;99.90
18339;DHT22;9295;44.484;11.240;2023-02-23T03:51:35;9.80;99.90
18339;DHT22;9295;44.484;11.240;2023-02-23T03:54:27;9.70;99.90
18339;DHT22;9295;44.484;11.240;2023-02-23T03:57:15;9.80;99.90
18339;DHT22;9295;44.484;11.240;2023-02-23T04:00:07;9.80;99.90
18339;DHT22;9295;44.484;11.240;2023-02-23T04:02:56;9.80;99.90
18339;DHT22;9295;44.484;11.240;2023-02-23T04:05:44;9.80;99.90
18339;DHT22;9295;44.484;11.240;2023-02-23T04:08:34;9.70;99.90
18339;DHT22;9295;44.484;11.240;2023-02-23T04:11:27;9.80;99.90
18339;DHT22;9295;44.484;11.240;2023-02-23T04:14:17;9.80;99.90
18339;DHT22;9295;44.484;11.240;2023-02-23T04:16:46;9.80;99.90
18339;DHT22;9295;44.484;11.240;2023-02-23T04:19:15;9.80;99.90
18339;DHT22;9295;44.484;11.240;2023-02-23T04:21:44;9.80;99.90
18339;DHT22;9295;44.484;11.240;2023-02-23T04:24:12;9.80;99.90
18339;DHT22;9295;44.484;11.240;2023-02-23T04:26:41;9.80;99.90
18339;DHT22;9295;44.484;11.240;2023-02-23T04:29:10;9.80;99.90
18339;DHT22;9295;44.484;11.240;2023-02-23T04:31:38;9.80;99.90
18339;DHT22;9295;44.484;11.240;2023-02-23T04:34:07;9.80;99.90
18339;DHT22;9295;44.484;11.240;2023-02-23T04:36:37;9.80;99.90
18339;DHT22;9295;44.484;11.240;2023-02-23T04:39:06;9.80;99.90
18339;DHT22;9295;44.484;11.240;2023-02-23T04:41:35;9.80;99.90
18339;DHT22;9295;44.484;11.240;2023-02-23T04:44:04;9.80;99.90
18339;DHT22;9295;44.484;11.240;2023-02-23T04:46:33;9.90;99.90
18339;DHT22;9295;44.484;11.240;2023-02-23T04:49:01;9.90;99.90
18339;DHT22;9295;44.484;11.240;2023-02-23T04:51:30;10.00;99.90
18339;DHT22;9295;44.484;11.240;2023-02-23T04:54:01;9.90;99.90
18339;DHT22;9295;44.484;11.240;2023-02-23T04:56:30;9.90;99.90
18339;DHT22;9295;44.484;11.240;2023-02-23T04:58:58;9.90;99.90
18339;DHT22;9295;44.484;11.240;2023-02-23T05:01:27;9.90;99.90
18339;DHT22;9295;44.484;11.240;2023-02-23T05:03:56;10.00;99.90
18339;DHT22;9295;44.484;11.240;2023-02-23T05:06:26;9.90;99.90
18339;DHT22;9295;44.484;11.240;2023-02-23T05:08:54;9.90;99.90
18339;DHT22;9295;44.484;11.240;2023-02-23T05:11:24;9.90;99.90
18339;DHT22;9295;44.484;11.240;2023-02-23T05:13:53;9.90;99.90
18339;DHT22;9295;44.484;11.240;2023-02-23T05:16:22;9.90;99.90
18339;DHT22;9295;44.484;11.240;2023-02-23T05:18:51;9.90;99.90
18339;DHT22;9295;44.484;11.240;2023-02-23T05:21:19;10.00;99.90
18339;DHT22;9295;44.484;11.240;2023-02-23T05:23:48;10.00;99.90
18339;DHT22;9295;44.484;11.240;2023-02-23T05:26:16;9.90;99.90
18339;DHT22;9295;44.484;11.240;2023-02-23T05:28:46;9.90;99.90
18339;DHT22;9295;44.484;11.240;2023-02-23T05:31:15;9.90;99.90
18339;DHT22;9295;44.484;11.240;2023-02-23T05:33:44;9.90;99.90
18339;DHT22;9295;44.484;11.240;2023-02-23T05:36:14;9.90;99.90
18339;DHT22;9295;44.484;11.240;2023-02-23T05:38:44;9.90;99.90
18339;DHT22;9295;44.484;11.240;2023-02-23T05:41:15;9.90;99.90
18339;DHT22;9295;44.484;11.240;2023-02-23T05:43:46;10.00;99.90
18339;DHT22;9295;44.484;11.240;2023-02-23T05:46:16;10.00;99.90
18339;DHT22;9295;44.484;11.240;2023-02-23T05:48:46;10.00;99.90
18339;DHT22;9295;44.484;11.240;2023-02-23T05:51:16;9.90;99.90
18339;DHT22;9295;44.484;11.240;2023-02-23T05:53:45;10.00;99.90
18339;DHT22;9295;44.484;11.240;2023-02-23T05:56:15;10.00;99.90
18339;DHT22;9295;44.484;11.240;2023-02-23T05:58:48;10.00;99.90
18339;DHT22;9295;44.484;11.240;2023-02-23T06:01:17;9.90;99.90
18339;DHT22;9295;44.484;11.240;2023-02-23T06:03:47;9.90;99.90
18339;DHT22;9295;44.484;11.240;2023-02-23T06:06:16;9.90;99.90
18339;DHT22;9295;44.484;11.240;2023-02-23T06:08:45;10.00;99.90
18339;DHT22;9295;44.484;11.240;2023-02-23T06:11:14;9.90;99.90
18339;DHT22;9295;44.484;11.240;2023-02-23T06:13:43;9.90;99.90
18339;DHT22;9295;44.484;11.240;2023-02-23T06:16:13;9.80;99.90
18339;DHT22;9295;44.484;11.240;2023-02-23T06:18:42;9.80;99.90
18339;DHT22;9295;44.484;11.240;2023-02-23T06:21:10;9.90;99.90
18339;DHT22;9295;44.484;11.240;2023-02-23T06:23:39;9.90;99.90
18339;DHT22;9295;44.484;11.240;2023-02-23T06:26:07;9.90;99.90
18339;DHT22;9295;44.484;11.240;2023-02-23T06:28:36;9.90;99.90
18339;DHT22;9295;44.484;11.240;2023-02-23T06:31:04;9.90;99.90
18339;DHT22;9295;44.484;11.240;2023-02-23T06:33:35;9.90;99.90
18339;DHT22;9295;44.484;11.240;2023-02-23T06:36:04;9.90;99.90
18339;DHT22;9295;44.484;11.240;2023-02-23T06:38:32;9.90;99.90
18339;DHT22;9295;44.484;11.240;2023-02-23T06:41:06;9.90;99.90
18339;DHT22;9295;44.484;11.240;2023-02-23T06:43:35;9.90;99.90
18339;DHT22;9295;44.484;11.240;2023-02-23T06:46:03;9.90;99.90
18339;DHT22;9295;44.484;11.240;2023-02-23T06:48:32;9.90;99.90
18339;DHT22;9295;44.484;11.240;2023-02-23T06:51:03;9.90;99.90
18339;DHT22;9295;44.484;11.240;2023-02-23T06:53:32;9.90;99.90
18339;DHT22;9295;44.484;11.240;2023-02-23T06:56:00;9.90;99.90
18339;DHT22;9295;44.484;11.240;2023-02-23T06:58:29;10.00;99.90
18339;DHT22;9295;44.484;11.240;2023-02-23T07:00:58;10.00;99.90
18339;DHT22;9295;44.484;11.240;2023-02-23T07:03:26;10.10;99.90
18339;DHT22;9295;44.484;11.240;2023-02-23T07:05:55;10.10;99.90
18339;DHT22;9295;44.484;11.240;2023-02-23T07:08:25;10.10;99.90
18339;DHT22;9295;44.484;11.240;2023-02-23T07:10:54;10.20;99.90
18339;DHT22;9295;44.484;11.240;2023-02-23T07:13:25;10.30;99.90
18339;DHT22;9295;44.484;11.240;2023-02-23T07:15:56;10.30;99.90
18339;DHT22;9295;44.484;11.240;2023-02-23T07:18:25;10.40;99.90
18339;DHT22;9295;44.484;11.240;2023-02-23T07:20:54;10.50;99.90
18339;DHT22;9295;44.484;11.240;2023-02-23T07:23:24;10.50;99.90
18339;DHT22;9295;44.484;11.240;2023-02-23T07:25:53;10.60;99.90
18339;DHT22;9295;44.484;11.240;2023-02-23T07:28:23;10.70;99.90
18339;DHT22;9295;44.484;11.240;2023-02-23T07:30:54;10.80;99.90
18339;DHT22;9295;44.484;11.240;2023-02-23T07:33:23;10.90;99.90
18339;DHT22;9295;44.484;11.240;2023-02-23T07:35:52;11.00;99.90
18339;DHT22;9295;44.484;11.240;2023-02-23T07:38:20;11.00;99.90
18339;DHT22;9295;44.484;11.240;2023-02-23T07:40:50;11.00;99.90
18339;DHT22;9295;44.484;11.240;2023-02-23T07:43:19;11.20;99.90
18339;DHT22;9295;44.484;11.240;2023-02-23T07:45:49;11.20;99.90
18339;DHT22;9295;44.484;11.240;2023-02-23T07:48:18;11.30;99.90
18339;DHT22;9295;44.484;11.240;2023-02-23T07:50:47;11.40;99.90
18339;DHT22;9295;44.484;11.240;2023-02-23T07:53:15;11.40;99.90
18339;DHT22;9295;44.484;11.240;2023-02-23T07:55:44;11.50;99.90
18339;DHT22;9295;44.484;11.240;2023-02-23T07:58:14;11.60;99.90
18339;DHT22;9295;44.484;11.240;2023-02-23T08:00:42;11.70;99.90
18339;DHT22;9295;44.484;11.240;2023-02-23T08:03:11;11.70;99.90
18339;DHT22;9295;44.484;11.240;2023-02-23T08:05:39;11.80;99.90
18339;DHT22;9295;44.484;11.240;2023-02-23T08:08:10;11.90;99.90
18339;DHT22;9295;44.484;11.240;2023-02-23T08:10:39;11.90;99.90
18339;DHT22;9295;44.484;11.240;2023-02-23T08:13:08;12.10;99.90
18339;DHT22;9295;44.484;11.240;2023-02-23T08:15:38;12.00;99.90
18339;DHT22;9295;44.484;11.240;2023-02-23T08:18:07;12.10;99.90
18339;DHT22;9295;44.484;11.240;2023-02-23T08:20:35;12.10;99.90
18339;DHT22;9295;44.484;11.240;2023-02-23T08:23:04;12.20;99.90
18339;DHT22;9295;44.484;11.240;2023-02-23T08:25:32;12.10;99.90
18339;DHT22;9295;44.484;11.240;2023-02-23T08:28:01;12.30;99.90
18339;DHT22;9295;44.484;11.240;2023-02-23T08:30:31;12.60;99.90
18339;DHT22;9295;44.484;11.240;2023-02-23T08:33:01;12.80;99.90
18339;DHT22;9295;44.484;11.240;2023-02-23T08:35:31;13.00;99.90
18339;DHT22;9295;44.484;11.240;2023-02-23T08:38:00;13.00;99.90
18339;DHT22;9295;44.484;11.240;2023-02-23T08:40:28;13.10;99.90
18339;DHT22;9295;44.484;11.240;2023-02-23T08:42:57;13.20;99.90
18339;DHT22;9295;44.484;11.240;2023-02-23T08:45:25;13.20;99.90
18339;DHT22;9295;44.484;11.240;2023-02-23T08:47:55;13.30;99.90
18339;DHT22;9295;44.484;11.240;2023-02-23T08:50:25;13.30;99.90
18339;DHT22;9295;44.484;11.240;2023-02-23T08:52:54;13.50;99.90
18339;DHT22;9295;44.484;11.240;2023-02-23T08:55:22;13.70;99.90
18339;DHT22;9295;44.484;11.240;2023-02-23T08:57:51;13.80;99.90
18339;DHT22;9295;44.484;11.240;2023-02-23T09:00:20;13.90;99.90
18339;DHT22;9295;44.484;11.240;2023-02-23T09:02:49;14.00;99.90
18339;DHT22;9295;44.484;11.240;2023-02-23T09:05:17;14.00;99.90
18339;DHT22;9295;44.484;11.240;2023-02-23T09:07:48;14.00;99.90
18339;DHT22;9295;44.484;11.240;2023-02-23T09:10:19;14.10;99.90
18339;DHT22;9295;44.484;11.240;2023-02-23T09:12:50;14.20;99.90
18339;DHT22;9295;44.484;11.240;2023-02-23T09:15:19;14.30;99.90
18339;DHT22;9295;44.484;11.240;2023-02-23T09:17:47;14.30;99.90
18339;DHT22;9295;44.484;11.240;2023-02-23T09:20:16;14.40;99.90
18339;DHT22;9295;44.484;11.240;2023-02-23T09:22:45;14.40;99.90
18339;DHT22;9295;44.484;11.240;2023-02-23T09:25:18;14.40;99.90
18339;DHT22;9295;44.484;11.240;2023-02-23T09:27:49;14.40;99.90
18339;DHT22;9295;44.484;11.240;2023-02-23T09:30:19;14.40;99.90
18339;DHT22;9295;44.484;11.240;2023-02-23T09:32:49;14.40;99.90
18339;DHT22;9295;44.484;11.240;2023-02-23T09:35:21;14.40;99.90
18339;DHT22;9295;44.484;11.240;2023-02-23T09:37:51;14.40;99.90
18339;DHT22;9295;44.484;11.240;2023-02-23T09:40:25;14.40;99.90
18339;DHT22;9295;44.484;11.240;2023-02-23T09:43:00;14.50;99.90
18339;DHT22;9295;44.484;11.240;2023-02-23T09:45:35;14.50;99.90
18339;DHT22;9295;44.484;11.240;2023-02-23T09:48:12;14.60;99.90
18339;DHT22;9295;44.484;11.240;2023-02-23T09:50:46;14.60;99.90
18339;DHT22;9295;44.484;11.240;2023-02-23T09:53:33;14.70;99.90
18339;DHT22;9295;44.484;11.240;2023-02-23T09:56:09;14.70;99.90
18339;DHT22;9295;44.484;11.240;2023-02-23T09:58:39;14.70;99.90
18339;DHT22;9295;44.484;11.240;2023-02-23T10:01:25;14.80;99.90
18339;DHT22;9295;44.484;11.240;2023-02-23T10:04:02;14.80;99.90
18339;DHT22;9295;44.484;11.240;2023-02-23T10:06:33;14.70;99.90
18339;DHT22;9295;44.484;11.240;2023-02-23T10:09:11;14.70;99.90
18339;DHT22;9295;44.484;11.240;2023-02-23T10:11:47;14.30;99.90
18339;DHT22;9295;44.484;11.240;2023-02-23T10:14:33;13.90;99.90
18339;DHT22;9295;44.484;11.240;2023-02-23T10:17:13;13.70;99.90
18339;DHT22;9295;44.484;11.240;2023-02-23T10:19:52;14.00;99.90
18339;DHT22;9295;44.484;11.240;2023-02-23T10:22:23;14.10;99.90
18339;DHT22;9295;44.484;11.240;2023-02-23T10:24:55;14.30;99.90
18339;DHT22;9295;44.484;11.240;2023-02-23T10:27:31;14.40;99.90
18339;DHT22;9295;44.484;11.240;2023-02-23T10:30:01;14.50;99.90
18339;DHT22;9295;44.484;11.240;2023-02-23T10:32:37;14.50;99.90
18339;DHT22;9295;44.484;11.240;2023-02-23T10:35:10;14.50;99.90
18339;DHT22;9295;44.484;11.240;2023-02-23T10:37:40;14.60;99.90
18339;DHT22;9295;44.484;11.240;2023-02-23T10:40:14;14.70;99.90
18339;DHT22;9295;44.484;11.240;2023-02-23T10:42:44;14.80;99.90
18339;DHT22;9295;44.484;11.240;2023-02-23T10:45:14;14.80;99.90
18339;DHT22;9295;44.484;11.240;2023-02-23T10:47:45;14.70;99.90
18339;DHT22;9295;44.484;11.240;2023-02-23T10:50:14;14.70;99.90
18339;DHT22;9295;44.484;11.240;2023-02-23T10:52:45;14.70;99.90
18339;DHT22;9295;44.484;11.240;2023-02-23T10:55:21;14.70;99.90
18339;DHT22;9295;44.484;11.240;2023-02-23T10:58:03;14.90;99.90
18339;DHT22;9295;44.484;11.240;2023-02-23T11:00:36;15.10;99.90
18339;DHT22;9295;44.484;11.240;2023-02-23T11:03:17;15.30;99.90
18339;DHT22;9295;44.484;11.240;2023-02-23T11:05:47;15.50;99.90
18339;DHT22;9295;44.484;11.240;2023-02-23T11:08:28;15.70;99.90
18339;DHT22;9295;44.484;11.240;2023-02-23T11:11:00;15.70;99.90
18339;DHT22;9295;44.484;11.240;2023-02-23T11:13:35;15.60;99.90
18339;DHT22;9295;44.484;11.240;2023-02-23T11:16:07;15.70;99.90
18339;DHT22;9295;44.484;11.240;2023-02-23T11:18:38;15.80;99.90
18339;DHT22;9295;44.484;11.240;2023-02-23T11:21:12;15.90;99.90
18339;DHT22;9295;44.484;11.240;2023-02-23T11:23:41;15.80;99.90
18339;DHT22;9295;44.484;11.240;2023-02-23T11:26:27;15.70;99.90
18339;DHT22;9295;44.484;11.240;2023-02-23T11:29:00;15.30;99.90
18339;DHT22;9295;44.484;11.240;2023-02-23T11:31:33;15.10;99.90
18339;DHT22;9295;44.484;11.240;2023-02-23T11:34:03;15.00;99.90
18339;DHT22;9295;44.484;11.240;2023-02-23T11:36:34;15.20;99.90
18339;DHT22;9295;44.484;11.240;2023-02-23T11:39:13;15.20;99.90
18339;DHT22;9295;44.484;11.240;2023-02-23T11:41:45;15.30;99.90
18339;DHT22;9295;44.484;11.240;2023-02-23T11:44:21;15.40;99.90
18339;DHT22;9295;44.484;11.240;2023-02-23T11:46:50;15.50;99.90
18339;DHT22;9295;44.484;11.240;2023-02-23T11:49:22;15.60;99.90
18339;DHT22;9295;44.484;11.240;2023-02-23T11:51:53;15.60;99.90
18339;DHT22;9295;44.484;11.240;2023-02-23T11:54:25;15.80;99.90
18339;DHT22;9295;44.484;11.240;2023-02-23T11:56:54;15.80;99.90
18339;DHT22;9295;44.484;11.240;2023-02-23T11:59:29;15.70;99.90
18339;DHT22;9295;44.484;11.240;2023-02-23T12:02:04;15.40;99.90
18339;DHT22;9295;44.484;11.240;2023-02-23T12:04:35;15.40;99.90
18339;DHT22;9295;44.484;11.240;2023-02-23T12:07:24;15.20;99.90
18339;DHT22;9295;44.484;11.240;2023-02-23T12:10:01;15.10;99.90
18339;DHT22;9295;44.484;11.240;2023-02-23T12:12:42;15.30;99.90
18339;DHT22;9295;44.484;11.240;2023-02-23T12:15:23;15.50;99.90
18339;DHT22;9295;44.484;11.240;2023-02-23T12:17:56;15.80;99.90
18339;DHT22;9295;44.484;11.240;2023-02-23T12:20:29;15.90;99.90
18339;DHT22;9295;44.484;11.240;2023-02-23T12:23:02;15.90;99.90
18339;DHT22;9295;44.484;11.240;2023-02-23T12:25:36;16.00;99.90
18339;DHT22;9295;44.484;11.240;2023-02-23T12:28:10;16.00;99.90
18339;DHT22;9295;44.484;11.240;2023-02-23T12:30:50;15.80;99.90
18339;DHT22;9295;44.484;11.240;2023-02-23T12:33:23;15.80;99.90
18339;DHT22;9295;44.484;11.240;2023-02-23T12:35:59;16.00;99.90
18339;DHT22;9295;44.484;11.240;2023-02-23T12:38:33;16.10;99.90
18339;DHT22;9295;44.484;11.240;2023-02-23T12:41:09;16.20;99.90
18339;DHT22;9295;44.484;11.240;2023-02-23T12:43:43;16.00;99.90
18339;DHT22;9295;44.484;11.240;2023-02-23T12:46:18;15.80;99.90
18339;DHT22;9295;44.484;11.240;2023-02-23T12:48:58;15.90;99.90
18339;DHT22;9295;44.484;11.240;2023-02-23T12:51:31;15.80;99.90
18339;DHT22;9295;44.484;11.240;2023-02-23T12:54:02;15.80;99.90
18339;DHT22;9295;44.484;11.240;2023-02-23T12:59:54;16.10;99.90
18339;DHT22;9295;44.484;11.240;2023-02-23T13:02:29;16.00;99.90
18339;DHT22;9295;44.484;11.240;2023-02-23T13:05:17;15.40;99.90
18339;DHT22;9295;44.484;11.240;2023-02-23T13:07:58;15.20;99.90
18339;DHT22;9295;44.484;11.240;2023-02-23T13:10:46;15.30;99.90
18339;DHT22;9295;44.484;11.240;2023-02-23T13:13:24;15.70;99.90
18339;DHT22;9295;44.484;11.240;2023-02-23T13:16:00;15.80;99.90
18339;DHT22;9295;44.484;11.240;2023-02-23T13:18:37;15.90;99.90
18339;DHT22;9295;44.484;11.240;2023-02-23T13:21:14;16.00;99.90
18339;DHT22;9295;44.484;11.240;2023-02-23T13:23:55;15.90;99.90
18339;DHT22;9295;44.484;11.240;2023-02-23T13:26:32;15.90;99.90
18339;DHT22;9295;44.484;11.240;2023-02-23T13:29:06;15.70;99.90
18339;DHT22;9295;44.484;11.240;2023-02-23T13:31:40;15.70;99.90
18339;DHT22;9295;44.484;11.240;2023-02-23T13:34:15;15.80;99.90
18339;DHT22;9295;44.484;11.240;2023-02-23T13:36:44;16.00;99.90
18339;DHT22;9295;44.484;11.240;2023-02-23T13:39:32;16.00;99.90
18339;DHT22;9295;44.484;11.240;2023-02-23T13:42:20;16.10;99.90
18339;DHT22;9295;44.484;11.240;2023-02-23T13:44:56;16.10;99.90
18339;DHT22;9295;44.484;11.240;2023-02-23T13:47:35;16.00;99.90
18339;DHT22;9295;44.484;11.240;2023-02-23T13:50:16;15.80;99.90
18339;DHT22;9295;44.484;11.240;2023-02-23T13:52:51;15.80;99.90
18339;DHT22;9295;44.484;11.240;2023-02-23T13:55:43;15.70;99.90
18339;DHT22;9295;44.484;11.240;2023-02-23T13:58:18;15.50;99.90
18339;DHT22;9295;44.484;11.240;2023-02-23T14:00:54;15.40;99.90
18339;DHT22;9295;44.484;11.240;2023-02-23T14:03:35;15.30;99.90
18339;DHT22;9295;44.484;11.240;2023-02-23T14:06:14;15.20;99.90
18339;DHT22;9295;44.484;11.240;2023-02-23T14:08:50;15.30;99.90
18339;DHT22;9295;44.484;11.240;2023-02-23T14:11:46;15.40;99.90
18339;DHT22;9295;44.484;11.240;2023-02-23T14:14:40;15.40;99.90
18339;DHT22;9295;44.484;11.240;2023-02-23T14:17:53;15.20;99.90
18339;DHT22;9295;44.484;11.240;2023-02-23T14:20:52;15.10;99.90
18339;DHT22;9295;44.484;11.240;2023-02-23T14:23:35;15.10;99.90
18339;DHT22;9295;44.484;11.240;2023-02-23T14:26:37;15.00;99.90
18339;DHT22;9295;44.484;11.240;2023-02-23T14:29:20;15.00;99.90
18339;DHT22;9295;44.484;11.240;2023-02-23T14:31:59;15.00;99.90
18339;DHT22;9295;44.484;11.240;2023-02-23T14:34:44;15.00;99.90
18339;DHT22;9295;44.484;11.240;2023-02-23T14:37:17;15.00;99.90
18339;DHT22;9295;44.484;11.240;2023-02-23T14:39:51;15.00;99.90
18339;DHT22;9295;44.484;11.240;2023-02-23T14:42:22;14.90;99.90
18339;DHT22;9295;44.484;11.240;2023-02-23T14:44:52;14.90;99.90
18339;DHT22;9295;44.484;11.240;2023-02-23T14:47:22;15.00;99.90
18339;DHT22;9295;44.484;11.240;2023-02-23T14:49:54;15.00;99.90
18339;DHT22;9295;44.484;11.240;2023-02-23T14:52:24;14.90;99.90
18339;DHT22;9295;44.484;11.240;2023-02-23T14:55:08;14.70;99.90
18339;DHT22;9295;44.484;11.240;2023-02-23T14:57:42;14.50;99.90
18339;DHT22;9295;44.484;11.240;2023-02-23T15:00:18;14.50;99.90
18339;DHT22;9295;44.484;11.240;2023-02-23T15:02:54;14.50;99.90
18339;DHT22;9295;44.484;11.240;2023-02-23T15:05:25;14.50;99.90
18339;DHT22;9295;44.484;11.240;2023-02-23T15:07:57;14.50;99.90
18339;DHT22;9295;44.484;11.240;2023-02-23T15:10:32;14.50;99.90
18339;DHT22;9295;44.484;11.240;2023-02-23T15:13:07;14.50;99.90
18339;DHT22;9295;44.484;11.240;2023-02-23T15:15:40;14.40;99.90
18339;DHT22;9295;44.484;11.240;2023-02-23T15:18:18;14.30;99.90
18339;DHT22;9295;44.484;11.240;2023-02-23T15:20:48;14.30;99.90
18339;DHT22;9295;44.484;11.240;2023-02-23T15:23:18;14.30;99.90
18339;DHT22;9295;44.484;11.240;2023-02-23T15:25:49;14.30;99.90
18339;DHT22;9295;44.484;11.240;2023-02-23T15:28:21;14.20;99.90
18339;DHT22;9295;44.484;11.240;2023-02-23T15:30:52;14.20;99.90
18339;DHT22;9295;44.484;11.240;2023-02-23T15:33:22;14.30;99.90
18339;DHT22;9295;44.484;11.240;2023-02-23T15:35:59;14.30;99.90
18339;DHT22;9295;44.484;11.240;2023-02-23T15:38:33;14.30;99.90
18339;DHT22;9295;44.484;11.240;2023-02-23T15:41:19;14.30;99.90
18339;DHT22;9295;44.484;11.240;2023-02-23T15:43:51;14.30;99.90
18339;DHT22;9295;44.484;11.240;2023-02-23T15:46:22;14.20;99.90
18339;DHT22;9295;44.484;11.240;2023-02-23T15:48:53;14.10;99.90
18339;DHT22;9295;44.484;11.240;2023-02-23T15:51:32;14.20;99.90
18339;DHT22;9295;44.484;11.240;2023-02-23T15:54:07;14.10;99.90
18339;DHT22;9295;44.484;11.240;2023-02-23T15:56:41;14.10;99.90
18339;DHT22;9295;44.484;11.240;2023-02-23T15:59:24;14.10;99.90
18339;DHT22;9295;44.484;11.240;2023-02-23T16:01:57;14.00;99.90
18339;DHT22;9295;44.484;11.240;2023-02-23T16:04:30;13.90;99.90
18339;DHT22;9295;44.484;11.240;2023-02-23T16:07:12;13.80;99.90
18339;DHT22;9295;44.484;11.240;2023-02-23T16:09:50;13.70;99.90
18339;DHT22;9295;44.484;11.240;2023-02-23T16:12:23;13.70;99.90
18339;DHT22;9295;44.484;11.240;2023-02-23T16:14:57;13.70;99.90
18339;DHT22;9295;44.484;11.240;2023-02-23T16:17:28;13.80;99.90
18339;DHT22;9295;44.484;11.240;2023-02-23T16:20:10;13.80;99.90
18339;DHT22;9295;44.484;11.240;2023-02-23T16:22:41;13.80;99.90
18339;DHT22;9295;44.484;11.240;2023-02-23T16:25:14;13.70;99.90
18339;DHT22;9295;44.484;11.240;2023-02-23T16:27:46;13.70;99.90
18339;DHT22;9295;44.484;11.240;2023-02-23T16:30:22;13.70;99.90